createdAt,value
2022-09-06T00:01:17.655Z,3.38
2022-09-06T00:03:46.429Z,4.00
2022-09-06T00:06:16.229Z,3.95
2022-09-06T00:08:45.242Z,3.85
2022-09-06T00:11:15.690Z,4.28
2022-09-06T00:13:43.876Z,4.47
2022-09-06T00:16:13.392Z,3.58
2022-09-06T00:18:41.874Z,4.05
2022-09-06T00:21:17.303Z,3.92
2022-09-06T00:23:45.177Z,4.25
2022-09-06T00:26:14.950Z,3.80
2022-09-06T00:28:43.281Z,4.30
2022-09-06T00:31:12.578Z,3.97
2022-09-06T00:33:40.794Z,3.63
2022-09-06T00:36:09.729Z,3.75
2022-09-06T00:38:38.314Z,3.50
2022-09-06T00:41:07.186Z,4.13
2022-09-06T00:43:36.431Z,4.25
2022-09-06T00:46:05.666Z,3.60
2022-09-06T00:48:34.123Z,3.80
2022-09-06T00:51:04.685Z,3.72
2022-09-06T00:53:33.515Z,3.40
2022-09-06T00:56:02.248Z,3.88
2022-09-06T00:58:30.389Z,3.60
2022-09-06T01:00:59.642Z,3.38
2022-09-06T01:03:28.358Z,4.10
2022-09-06T01:06:07.317Z,4.45
2022-09-06T01:08:49.217Z,4.00
2022-09-06T01:11:34.498Z,3.83
2022-09-06T01:14:12.766Z,4.05
2022-09-06T01:16:50.321Z,4.20
2022-09-06T01:19:45.103Z,3.95
2022-09-06T01:22:28.872Z,4.50
2022-09-06T01:25:21.205Z,3.80
2022-09-06T01:28:19.113Z,4.10
2022-09-06T01:30:52.902Z,4.47
2022-09-06T01:33:25.712Z,4.45
2022-09-06T01:35:59.390Z,4.00
2022-09-06T01:38:27.621Z,4.20
2022-09-06T01:40:56.067Z,4.03
2022-09-06T01:43:28.416Z,4.45
2022-09-06T01:46:04.083Z,4.90
2022-09-06T01:48:46.026Z,5.00
2022-09-06T01:51:22.902Z,5.05
2022-09-06T01:54:07.740Z,4.95
2022-09-06T01:56:44.864Z,4.75
2022-09-06T01:59:31.592Z,4.20
2022-09-06T02:02:07.712Z,3.53
2022-09-06T02:04:44.411Z,4.10
2022-09-06T02:07:18.917Z,4.57
2022-09-06T02:09:50.667Z,4.20
2022-09-06T02:12:21.738Z,3.97
2022-09-06T02:14:56.459Z,4.55
2022-09-06T02:17:30.096Z,4.45
2022-09-06T02:20:03.637Z,4.95
2022-09-06T02:22:34.192Z,5.05
2022-09-06T02:25:03.532Z,4.88
2022-09-06T02:27:31.461Z,4.35
2022-09-06T02:30:02.880Z,5.03
2022-09-06T02:32:32.257Z,4.40
2022-09-06T02:35:00.361Z,4.45
2022-09-06T02:37:28.595Z,4.70
2022-09-06T02:39:57.027Z,4.10
2022-09-06T02:42:26.118Z,4.35
2022-09-06T02:44:54.061Z,3.90
2022-09-06T02:47:23.293Z,4.63
2022-09-06T02:49:51.136Z,3.97
2022-09-06T02:52:19.055Z,4.55
2022-09-06T02:54:47.084Z,4.15
2022-09-06T02:57:15.139Z,4.60
2022-09-06T02:59:43.019Z,4.60
2022-09-06T03:02:10.908Z,4.20
2022-09-06T03:04:40.160Z,3.92
2022-09-06T03:07:08.039Z,4.60
2022-09-06T03:09:35.906Z,4.28
2022-09-06T03:12:04.193Z,4.32
2022-09-06T03:14:32.305Z,4.65
2022-09-06T03:17:00.219Z,4.70
2022-09-06T03:19:28.132Z,4.63
2022-09-06T03:21:57.388Z,4.80
2022-09-06T03:24:25.419Z,3.90
2022-09-06T03:26:53.324Z,4.68
2022-09-06T03:29:21.236Z,4.40
2022-09-06T03:31:49.070Z,4.60
2022-09-06T03:34:16.937Z,5.10
2022-09-06T03:36:44.831Z,4.60
2022-09-06T03:39:14.120Z,5.13
2022-09-06T03:41:42.124Z,4.45
2022-09-06T03:44:10.013Z,4.75
2022-09-06T03:46:37.834Z,4.82
2022-09-06T03:49:05.728Z,5.18
2022-09-06T03:51:33.569Z,4.93
2022-09-06T03:54:01.612Z,4.50
2022-09-06T03:56:30.854Z,4.93
2022-09-06T03:58:58.693Z,5.30
2022-09-06T04:01:26.859Z,4.72
2022-09-06T04:03:54.797Z,4.80
2022-09-06T04:06:22.673Z,5.35
2022-09-06T04:08:50.577Z,5.00
2022-09-06T04:11:18.475Z,4.88
2022-09-06T04:13:47.722Z,5.10
2022-09-06T04:16:17.569Z,5.30
2022-09-06T04:18:45.589Z,4.38
2022-09-06T04:21:13.463Z,4.72
2022-09-06T04:23:41.396Z,5.32
2022-09-06T04:26:10.413Z,5.10
2022-09-06T04:28:38.371Z,5.25
2022-09-06T04:31:07.615Z,4.68
2022-09-06T04:33:38.152Z,4.85
2022-09-06T04:36:10.165Z,5.50
2022-09-06T04:38:39.714Z,4.28
2022-09-06T04:41:08.104Z,4.72
2022-09-06T04:43:36.060Z,5.80
2022-09-06T04:46:07.615Z,4.53
2022-09-06T04:48:35.965Z,4.78
2022-09-06T04:51:03.820Z,5.32
2022-09-06T04:53:31.729Z,5.22
2022-09-06T04:55:59.872Z,5.03
2022-09-06T04:58:27.913Z,4.97
2022-09-06T05:00:55.846Z,5.50
2022-09-06T05:03:25.381Z,5.00
2022-09-06T05:05:53.240Z,4.75
2022-09-06T05:08:21.233Z,5.07
2022-09-06T05:10:52.578Z,4.65
2022-09-06T05:13:20.458Z,4.95
2022-09-06T05:15:48.312Z,4.47
2022-09-06T05:18:16.368Z,4.80
2022-09-06T05:20:45.591Z,4.90
2022-09-06T05:23:13.449Z,4.72
2022-09-06T05:25:41.333Z,4.97
2022-09-06T05:28:09.162Z,4.18
2022-09-06T05:30:37.018Z,4.88
2022-09-06T05:33:05.011Z,4.25
2022-09-06T05:35:32.921Z,4.90
2022-09-06T05:38:02.143Z,5.10
2022-09-06T05:40:30.075Z,4.45
2022-09-06T05:42:58.053Z,4.63
2022-09-06T05:45:26.043Z,5.15
2022-09-06T05:47:53.929Z,4.88
2022-09-06T05:50:22.121Z,4.30
2022-09-06T05:52:50.002Z,4.40
2022-09-06T05:55:19.204Z,4.00
2022-09-06T05:57:47.091Z,4.13
2022-09-06T06:00:15.707Z,4.55
2022-09-06T06:02:43.606Z,5.90
2022-09-06T06:05:11.489Z,4.25
2022-09-06T06:07:39.374Z,4.32
2022-09-06T06:10:07.931Z,4.35
2022-09-06T06:12:37.174Z,4.72
2022-09-06T06:15:06.360Z,5.28
2022-09-06T06:17:34.554Z,4.20
2022-09-06T06:20:03.113Z,5.00
2022-09-06T06:22:30.988Z,4.90
2022-09-06T06:24:58.853Z,4.88
2022-09-06T06:27:26.715Z,5.03
2022-09-06T06:29:55.965Z,4.68
2022-09-06T06:32:23.828Z,5.18
2022-09-06T06:34:51.699Z,4.32
2022-09-06T06:37:19.595Z,4.63
2022-09-06T06:39:47.938Z,3.97
2022-09-06T06:42:16.060Z,4.40
2022-09-06T06:44:44.005Z,3.90
2022-09-06T06:47:13.241Z,4.80
2022-09-06T06:49:41.145Z,4.40
2022-09-06T06:52:09.023Z,4.97
2022-09-06T06:54:37.408Z,4.30
2022-09-06T06:57:05.553Z,3.80
2022-09-06T06:59:33.457Z,5.05
2022-09-06T07:02:01.383Z,4.43
2022-09-06T07:04:30.647Z,4.75
2022-09-06T07:12:34.160Z,4.60
2022-09-06T07:15:02.064Z,3.63
2022-09-06T07:17:30.174Z,3.67
2022-09-06T07:20:15.163Z,3.45
2022-09-06T07:22:44.008Z,4.32
2022-09-06T07:25:15.288Z,4.82
2022-09-06T07:30:14.826Z,3.97
2022-09-06T07:32:42.690Z,3.50
2022-09-06T07:35:13.927Z,3.72
2022-09-06T07:37:41.874Z,3.42
2022-09-06T07:40:11.131Z,3.95
2022-09-06T07:42:39.061Z,3.60
2022-09-06T07:45:07.723Z,4.40
2022-09-06T07:53:15.505Z,3.20
2022-09-06T07:55:47.380Z,3.95
2022-09-06T07:58:15.297Z,3.40
2022-09-06T08:00:43.307Z,3.42
2022-09-06T08:03:11.367Z,3.00
2022-09-06T08:11:16.669Z,4.10
2022-09-06T08:13:45.694Z,4.10
2022-09-06T08:16:13.989Z,4.13
2022-09-06T08:18:42.012Z,4.22
2022-09-06T08:21:13.342Z,4.45
2022-09-06T08:23:43.643Z,4.45
2022-09-06T08:26:12.210Z,4.15
2022-09-06T08:28:40.102Z,3.35
2022-09-06T08:31:10.000Z,3.60
2022-09-06T08:33:38.763Z,3.47
2022-09-06T08:36:07.959Z,4.18
2022-09-06T08:38:38.049Z,3.83
2022-09-06T08:41:11.449Z,3.22
2022-09-06T08:43:40.597Z,3.83
2022-09-06T08:46:10.289Z,3.28
2022-09-06T08:48:39.974Z,3.33
2022-09-06T08:51:23.947Z,2.88
2022-09-06T08:53:59.277Z,3.15
2022-09-06T08:56:34.079Z,2.55
2022-09-06T08:59:06.613Z,2.90
2022-09-06T09:01:43.122Z,2.60
2022-09-06T09:04:16.097Z,3.28
2022-09-06T09:06:47.316Z,2.70
2022-09-06T09:09:17.838Z,3.20
2022-09-06T09:11:50.805Z,3.92
2022-09-06T09:14:23.324Z,3.53
2022-09-06T09:16:52.373Z,3.35
2022-09-06T09:19:20.280Z,2.55
2022-09-06T09:21:48.355Z,3.35
2022-09-06T09:24:17.616Z,2.83
2022-09-06T09:26:52.805Z,3.88
2022-09-06T09:29:26.812Z,3.70
2022-09-06T09:31:57.167Z,2.83
2022-09-06T09:34:33.673Z,2.95
2022-09-06T09:40:13.993Z,2.90
2022-09-06T09:42:41.992Z,2.90
2022-09-06T09:45:25.181Z,3.70
2022-09-06T09:47:53.565Z,3.33
2022-09-06T09:50:27.801Z,2.75
2022-09-06T09:52:56.400Z,3.13
2022-09-06T09:55:28.422Z,3.22
2022-09-06T09:57:56.413Z,2.72
2022-09-06T10:00:36.858Z,2.55
2022-09-06T10:03:13.861Z,3.10
2022-09-06T10:05:42.663Z,3.45
2022-09-06T10:08:13.312Z,3.53
2022-09-06T10:10:47.747Z,3.13
2022-09-06T10:13:20.683Z,3.22
2022-09-06T10:15:49.957Z,3.35
2022-09-06T10:18:30.850Z,3.42
2022-09-06T10:21:02.048Z,3.53
2022-09-06T10:26:34.155Z,3.05
2022-09-06T10:29:06.533Z,3.20
2022-09-06T10:32:02.676Z,3.50
2022-09-06T10:35:00.369Z,3.70
2022-09-06T10:37:43.319Z,3.60
2022-09-06T10:40:13.188Z,3.90
2022-09-06T10:42:46.801Z,3.83
2022-09-06T10:45:33.917Z,3.25
2022-09-06T10:48:12.447Z,3.88
2022-09-06T10:50:48.141Z,4.43
2022-09-06T10:53:26.029Z,3.67
2022-09-06T11:01:30.866Z,3.78
2022-09-06T11:04:04.563Z,3.80
2022-09-06T11:06:45.342Z,3.92
2022-09-06T11:09:23.995Z,2.97
2022-09-06T11:12:01.691Z,3.47
2022-09-06T11:14:31.907Z,3.28
2022-09-06T11:17:04.933Z,3.00
2022-09-06T11:19:40.098Z,3.67
2022-09-06T11:22:28.677Z,3.53
2022-09-06T11:25:42.421Z,3.63
2022-09-06T11:28:15.255Z,3.20
2022-09-06T11:30:49.062Z,3.38
2022-09-06T11:33:25.781Z,3.30
2022-09-06T11:35:55.018Z,3.53
2022-09-06T11:38:26.492Z,5.07
2022-09-06T11:40:59.902Z,2.85
2022-09-06T11:43:48.624Z,3.13
2022-09-06T11:46:54.172Z,3.20
2022-09-06T11:49:41.807Z,3.13
2022-09-06T11:52:57.924Z,3.10
2022-09-06T11:55:47.387Z,2.95
2022-09-06T11:58:27.643Z,3.00
2022-09-06T12:01:33.134Z,2.83
2022-09-06T12:06:40.750Z,2.80
2022-09-06T12:09:32.500Z,2.47
2022-09-06T12:12:02.186Z,2.75
2022-09-06T12:14:40.359Z,2.50
2022-09-06T12:17:46.582Z,2.90
2022-09-06T12:20:52.874Z,3.00
2022-09-06T12:23:43.570Z,2.33
2022-09-06T12:26:12.247Z,2.70
2022-09-06T12:28:48.444Z,2.08
2022-09-06T12:31:32.388Z,1.75
2022-09-06T12:34:06.649Z,2.30
2022-09-06T12:36:34.726Z,1.92
2022-09-06T12:39:09.688Z,2.78
2022-09-06T12:41:43.485Z,2.83
2022-09-06T12:44:14.420Z,2.20
2022-09-06T12:46:48.112Z,2.10
2022-09-06T12:49:19.144Z,1.52
2022-09-06T12:51:47.442Z,1.75
2022-09-06T12:54:22.939Z,1.40
2022-09-06T12:56:51.557Z,2.40
2022-09-06T12:59:21.581Z,2.00
2022-09-06T13:02:00.393Z,3.10
2022-09-06T13:04:34.861Z,1.98
2022-09-06T13:07:04.746Z,2.03
2022-09-06T13:09:34.354Z,2.10
2022-09-06T13:12:07.721Z,2.65
2022-09-06T13:14:36.471Z,3.35
2022-09-06T13:17:04.352Z,2.63
2022-09-06T13:19:35.063Z,2.35
2022-09-06T13:22:05.411Z,2.63
2022-09-06T13:24:47.021Z,2.97
2022-09-06T13:27:26.182Z,2.70
2022-09-06T13:29:58.286Z,3.15
2022-09-06T13:32:27.345Z,3.38
2022-09-06T13:34:57.776Z,3.00
2022-09-06T13:37:27.190Z,3.55
2022-09-06T13:39:57.587Z,3.17
2022-09-06T13:42:30.796Z,3.58
2022-09-06T13:45:02.116Z,3.10
2022-09-06T13:47:30.763Z,3.25
2022-09-06T13:49:58.654Z,4.15
2022-09-06T13:52:26.875Z,3.80
2022-09-06T13:54:56.089Z,3.20
2022-09-06T13:57:24.766Z,2.55
2022-09-06T13:59:52.714Z,3.30
2022-09-06T14:02:20.904Z,3.55
2022-09-06T14:04:48.856Z,4.32
2022-09-06T14:07:16.770Z,2.70
2022-09-06T14:09:44.634Z,2.65
2022-09-06T14:12:13.836Z,2.50
2022-09-06T14:14:41.724Z,2.15
2022-09-06T14:17:09.695Z,2.65
2022-09-06T14:19:37.607Z,2.53
2022-09-06T14:22:06.852Z,3.22
2022-09-06T14:24:34.831Z,2.17
2022-09-06T14:27:02.687Z,2.65
2022-09-06T14:29:32.767Z,2.60
2022-09-06T14:32:00.673Z,2.30
2022-09-06T14:34:29.509Z,2.25
2022-09-06T14:36:57.360Z,2.70
2022-09-06T14:39:25.356Z,2.65
2022-09-06T14:41:53.925Z,2.72
2022-09-06T14:44:22.085Z,3.00
2022-09-06T14:46:53.399Z,2.60
2022-09-06T14:49:21.638Z,3.60
2022-09-06T14:51:49.543Z,2.63
2022-09-06T14:54:17.431Z,2.33
2022-09-06T14:56:45.592Z,3.00
2022-09-06T14:59:13.698Z,2.03
2022-09-06T15:01:42.366Z,1.73
2022-09-06T15:04:12.497Z,2.17
2022-09-06T15:06:44.831Z,2.50
2022-09-06T15:09:14.184Z,1.80
2022-09-06T15:11:44.269Z,1.90
2022-09-06T15:14:16.223Z,1.75
2022-09-06T15:16:44.190Z,1.60
2022-09-06T15:19:13.604Z,1.75
2022-09-06T15:21:41.988Z,1.70
2022-09-06T15:24:12.246Z,1.85
2022-09-06T15:26:40.894Z,1.83
2022-09-06T15:29:09.167Z,1.73
2022-09-06T15:31:38.318Z,1.88
2022-09-06T15:34:08.473Z,1.58
2022-09-06T15:36:38.233Z,2.15
2022-09-06T15:39:07.258Z,1.45
2022-09-06T15:41:37.194Z,2.13
2022-09-06T15:44:09.483Z,2.30
2022-09-06T15:46:46.252Z,1.80
2022-09-06T15:49:16.502Z,1.98
2022-09-06T15:51:46.024Z,1.77
2022-09-06T15:54:15.374Z,1.50
2022-09-06T15:56:42.934Z,2.17
2022-09-06T15:59:11.927Z,1.75
2022-09-06T16:01:40.784Z,1.90
2022-09-06T16:04:08.959Z,2.00
2022-09-06T16:06:39.613Z,2.28
2022-09-06T16:09:10.303Z,1.63
2022-09-06T16:11:38.495Z,2.03
2022-09-06T16:14:07.842Z,1.65
2022-09-06T16:16:36.090Z,1.95
2022-09-06T16:19:04.268Z,2.00
2022-09-06T16:21:34.433Z,1.95
2022-09-06T16:24:04.523Z,1.60
2022-09-06T16:26:35.820Z,1.83
2022-09-06T16:29:05.333Z,1.67
2022-09-06T16:31:39.098Z,1.80
2022-09-06T16:34:08.720Z,1.63
2022-09-06T16:36:36.613Z,1.90
2022-09-06T16:39:05.606Z,1.83
2022-09-06T16:41:40.550Z,2.15
2022-09-06T16:44:09.279Z,1.95
2022-09-06T16:46:39.992Z,1.88
2022-09-06T16:49:07.944Z,2.35
2022-09-06T16:51:36.170Z,1.48
2022-09-06T16:54:04.525Z,2.22
2022-09-06T16:56:35.929Z,2.10
2022-09-06T16:59:05.768Z,1.60
2022-09-06T17:01:36.156Z,2.10
2022-09-06T17:04:05.548Z,2.20
2022-09-06T17:06:35.298Z,1.67
2022-09-06T17:09:03.226Z,1.75
2022-09-06T17:11:31.391Z,2.40
2022-09-06T17:14:01.130Z,1.92
2022-09-06T17:16:46.728Z,2.10
2022-09-06T17:19:15.049Z,1.88
2022-09-06T17:21:43.636Z,2.20
2022-09-06T17:24:11.630Z,1.90
2022-09-06T17:26:40.960Z,2.10
2022-09-06T17:29:10.403Z,2.10
2022-09-06T17:31:39.022Z,2.20
2022-09-06T17:34:07.641Z,2.10
2022-09-06T17:36:36.597Z,2.53
2022-09-06T17:39:06.376Z,2.05
2022-09-06T17:41:37.820Z,1.80
2022-09-06T17:44:07.023Z,2.65
2022-09-06T17:46:36.308Z,2.45
2022-09-06T17:49:05.957Z,2.22
2022-09-06T17:51:35.092Z,2.20
2022-09-06T17:54:03.106Z,2.53
2022-09-06T17:56:31.320Z,2.35
2022-09-06T17:59:01.279Z,2.83
2022-09-06T18:01:32.307Z,2.10
2022-09-06T18:04:01.664Z,3.03
2022-09-06T18:06:30.736Z,2.65
2022-09-06T18:09:02.951Z,2.97
2022-09-06T18:11:32.851Z,2.67
2022-09-06T18:14:02.800Z,2.95
2022-09-06T18:16:32.027Z,2.95
2022-09-06T18:19:04.480Z,3.13
2022-09-06T18:21:35.063Z,2.90
2022-09-06T18:24:03.518Z,2.45
2022-09-06T18:26:31.423Z,2.95
2022-09-06T18:28:59.343Z,4.15
2022-09-06T18:31:28.824Z,3.28
2022-09-06T18:33:58.966Z,3.03
2022-09-06T18:36:31.941Z,2.72
2022-09-06T18:39:02.931Z,2.90
2022-09-06T18:41:48.356Z,2.65
2022-09-06T18:44:17.153Z,2.95
2022-09-06T18:46:45.647Z,2.70
2022-09-06T18:49:14.928Z,2.83
2022-09-06T18:51:45.519Z,3.10
2022-09-06T18:54:13.719Z,2.45
2022-09-06T18:56:41.741Z,2.88
2022-09-06T18:59:10.782Z,2.83
2022-09-06T19:01:39.277Z,2.40
2022-09-06T19:04:08.158Z,2.83
2022-09-06T19:06:38.007Z,2.92
2022-09-06T19:09:09.532Z,2.10
2022-09-06T19:11:38.101Z,2.78
2022-09-06T19:14:06.319Z,3.13
2022-09-06T19:16:34.583Z,2.65
2022-09-06T19:19:04.008Z,3.10
2022-09-06T19:21:32.462Z,2.83
2022-09-06T19:24:03.188Z,2.70
2022-09-06T19:26:34.843Z,3.10
2022-09-06T19:29:05.503Z,3.83
2022-09-06T19:31:35.221Z,3.95
2022-09-06T19:34:04.017Z,3.40
2022-09-06T19:36:32.775Z,2.90
2022-09-06T19:39:03.929Z,3.65
2022-09-06T19:41:35.176Z,3.30
2022-09-06T19:44:05.403Z,3.17
2022-09-06T19:46:33.528Z,3.30
2022-09-06T19:49:02.216Z,3.63
2022-09-06T19:51:30.446Z,3.17
2022-09-06T19:53:59.598Z,3.03
2022-09-06T19:56:30.043Z,3.60
2022-09-06T19:59:00.511Z,3.35
2022-09-06T20:01:31.080Z,3.13
2022-09-06T20:03:59.864Z,3.55
2022-09-06T20:06:28.227Z,3.35
2022-09-06T20:08:58.295Z,3.00
2022-09-06T20:11:28.125Z,2.72
2022-09-06T20:13:56.805Z,3.22
2022-09-06T20:16:26.541Z,3.00
2022-09-06T20:18:56.270Z,3.40
2022-09-06T20:21:24.158Z,3.20
2022-09-06T20:23:57.564Z,2.88
2022-09-06T20:26:26.869Z,3.05
2022-09-06T20:28:59.074Z,2.97
2022-09-06T20:31:29.387Z,3.10
2022-09-06T20:33:59.217Z,3.20
2022-09-06T20:36:27.277Z,2.72
2022-09-06T20:38:55.258Z,3.15
2022-09-06T20:41:25.119Z,2.83
2022-09-06T20:43:54.058Z,2.85
2022-09-06T20:46:23.830Z,3.08
2022-09-06T20:48:54.069Z,2.70
2022-09-06T20:51:23.875Z,2.97
2022-09-06T20:53:54.487Z,3.00
2022-09-06T20:56:25.081Z,3.03
2022-09-06T20:58:54.817Z,2.92
2022-09-06T21:01:25.204Z,2.65
2022-09-06T21:03:56.124Z,2.92
2022-09-06T21:06:25.083Z,2.92
2022-09-06T21:08:53.632Z,2.72
2022-09-06T21:11:22.079Z,3.00
2022-09-06T21:13:51.375Z,2.40
2022-09-06T21:16:24.267Z,2.00
2022-09-06T21:18:54.391Z,3.45
2022-09-06T21:21:22.415Z,2.40
2022-09-06T21:23:50.639Z,1.92
2022-09-06T21:26:18.880Z,2.53
2022-09-06T21:28:48.175Z,2.20
2022-09-06T21:31:17.569Z,2.38
2022-09-06T21:33:47.589Z,2.15
2022-09-06T21:36:18.681Z,2.15
2022-09-06T21:38:48.049Z,2.25
2022-09-06T21:41:17.896Z,2.10
2022-09-06T21:43:46.084Z,2.17
2022-09-06T21:46:16.717Z,1.98
2022-09-06T21:48:46.369Z,1.90
2022-09-06T21:51:18.438Z,1.92
2022-09-06T21:53:47.977Z,2.72
2022-09-06T21:56:18.694Z,2.28
2022-09-06T21:58:47.068Z,2.47
2022-09-06T22:01:16.052Z,1.83
2022-09-06T22:03:44.395Z,1.77
2022-09-06T22:06:14.015Z,1.70
2022-09-06T22:08:44.140Z,1.88
2022-09-06T22:11:13.462Z,1.90
2022-09-06T22:13:42.107Z,1.80
2022-09-06T22:16:10.426Z,1.70
2022-09-06T22:18:38.968Z,2.05
2022-09-06T22:21:09.460Z,1.60
2022-09-06T22:23:37.816Z,1.90
2022-09-06T22:26:09.204Z,2.30
2022-09-06T22:28:37.728Z,2.00
2022-09-06T22:31:06.349Z,1.85
2022-09-06T22:33:34.781Z,1.75
2022-09-06T22:36:03.151Z,1.92
2022-09-06T22:38:31.699Z,1.40
2022-09-06T22:40:59.727Z,1.90
2022-09-06T22:43:28.993Z,2.10
2022-09-06T22:46:03.833Z,1.80
2022-09-06T22:48:31.850Z,1.70
2022-09-06T22:51:00.592Z,2.00
2022-09-06T22:53:29.177Z,1.40
2022-09-06T22:55:57.563Z,1.70
2022-09-06T22:58:26.817Z,1.77
2022-09-06T23:00:56.380Z,1.85
2022-09-06T23:03:24.442Z,1.80
2022-09-06T23:05:52.440Z,1.55
2022-09-06T23:08:20.306Z,2.38
2022-09-06T23:10:48.342Z,1.65
2022-09-06T23:13:17.428Z,1.80
2022-09-06T23:15:46.373Z,1.70
2022-09-06T23:18:15.809Z,3.38
2022-09-06T23:20:43.679Z,1.80
2022-09-06T23:23:11.721Z,1.50
2022-09-06T23:25:40.398Z,1.50
2022-09-06T23:28:08.335Z,1.73
2022-09-06T23:30:38.686Z,1.65
2022-09-06T23:33:06.591Z,1.52
2022-09-06T23:35:35.785Z,2.03
2022-09-06T23:38:03.661Z,1.83
2022-09-06T23:40:31.502Z,1.80
2022-09-06T23:42:59.329Z,1.90
2022-09-06T23:45:27.261Z,1.92
2022-09-06T23:47:55.115Z,1.67
2022-09-06T23:50:23.063Z,1.65
2022-09-06T23:52:52.280Z,2.85
2022-09-06T23:55:20.187Z,1.83
2022-09-06T23:57:48.033Z,2.13
